sensor_id;sensor_type;location;lat;lon;timestamp;temperature;humidity
10030;DHT22;5055;52.054;8.524;2024-03-02T00:01:45;7.00;97.00
10030;DHT22;5055;52.054;8.524;2024-03-02T00:04:14;7.00;97.00
10030;DHT22;5055;52.054;8.524;2024-03-02T00:06:43;7.00;97.00
10030;DHT22;5055;52.054;8.524;2024-03-02T00:09:12;7.00;97.00
10030;DHT22;5055;52.054;8.524;2024-03-02T00:11:40;7.00;97.00
10030;DHT22;5055;52.054;8.524;2024-03-02T00:14:08;7.00;97.00
10030;DHT22;5055;52.054;8.524;2024-03-02T00:16:36;7.00;97.00
10030;DHT22;5055;52.054;8.524;2024-03-02T00:19:05;7.00;97.00
10030;DHT22;5055;52.054;8.524;2024-03-02T00:21:36;7.00;97.00
10030;DHT22;5055;52.054;8.524;2024-03-02T00:24:12;7.00;97.00
10030;DHT22;5055;52.054;8.524;2024-03-02T00:26:46;7.00;97.00
10030;DHT22;5055;52.054;8.524;2024-03-02T00:29:15;6.90;97.00
10030;DHT22;5055;52.054;8.524;2024-03-02T00:31:46;6.90;97.00
10030;DHT22;5055;52.054;8.524;2024-03-02T00:34:15;6.90;97.00
10030;DHT22;5055;52.054;8.524;2024-03-02T00:36:46;6.90;97.00
10030;DHT22;5055;52.054;8.524;2024-03-02T00:39:15;6.90;97.00
10030;DHT22;5055;52.054;8.524;2024-03-02T00:41:44;6.90;97.00
10030;DHT22;5055;52.054;8.524;2024-03-02T00:44:13;6.90;97.00
10030;DHT22;5055;52.054;8.524;2024-03-02T00:46:43;6.90;97.00
10030;DHT22;5055;52.054;8.524;2024-03-02T00:49:17;6.90;97.00
10030;DHT22;5055;52.054;8.524;2024-03-02T00:51:50;6.90;97.00
10030;DHT22;5055;52.054;8.524;2024-03-02T00:54:20;6.90;97.00
10030;DHT22;5055;52.054;8.524;2024-03-02T00:56:50;6.90;97.00
10030;DHT22;5055;52.054;8.524;2024-03-02T00:59:18;6.90;97.00
10030;DHT22;5055;52.054;8.524;2024-03-02T01:01:47;6.90;97.00
10030;DHT22;5055;52.054;8.524;2024-03-02T01:04:15;6.90;97.00
10030;DHT22;5055;52.054;8.524;2024-03-02T01:06:43;6.90;97.00
10030;DHT22;5055;52.054;8.524;2024-03-02T01:09:14;6.90;97.00
10030;DHT22;5055;52.054;8.524;2024-03-02T01:11:42;6.80;97.00
10030;DHT22;5055;52.054;8.524;2024-03-02T01:14:10;6.80;97.00
10030;DHT22;5055;52.054;8.524;2024-03-02T01:16:38;6.80;97.00
10030;DHT22;5055;52.054;8.524;2024-03-02T01:19:06;6.70;97.00
10030;DHT22;5055;52.054;8.524;2024-03-02T01:21:34;6.70;97.00
10030;DHT22;5055;52.054;8.524;2024-03-02T01:24:03;6.70;97.00
10030;DHT22;5055;52.054;8.524;2024-03-02T01:26:33;6.70;97.00
10030;DHT22;5055;52.054;8.524;2024-03-02T01:29:01;6.60;97.00
10030;DHT22;5055;52.054;8.524;2024-03-02T01:31:29;6.60;97.00
10030;DHT22;5055;52.054;8.524;2024-03-02T01:33:57;6.60;97.00
10030;DHT22;5055;52.054;8.524;2024-03-02T01:36:25;6.50;97.00
10030;DHT22;5055;52.054;8.524;2024-03-02T01:38:53;6.50;97.00
10030;DHT22;5055;52.054;8.524;2024-03-02T01:41:21;6.50;97.00
10030;DHT22;5055;52.054;8.524;2024-03-02T01:43:50;6.50;97.00
10030;DHT22;5055;52.054;8.524;2024-03-02T01:46:18;6.50;97.00
10030;DHT22;5055;52.054;8.524;2024-03-02T01:48:46;6.50;97.00
10030;DHT22;5055;52.054;8.524;2024-03-02T01:51:14;6.50;97.00
10030;DHT22;5055;52.054;8.524;2024-03-02T01:53:42;6.40;97.00
10030;DHT22;5055;52.054;8.524;2024-03-02T01:56:11;6.50;97.00
10030;DHT22;5055;52.054;8.524;2024-03-02T01:58:39;6.50;97.00
10030;DHT22;5055;52.054;8.524;2024-03-02T02:01:08;6.50;97.00
10030;DHT22;5055;52.054;8.524;2024-03-02T02:03:37;6.50;97.00
10030;DHT22;5055;52.054;8.524;2024-03-02T02:06:05;6.50;97.00
10030;DHT22;5055;52.054;8.524;2024-03-02T02:08:33;6.40;97.00
10030;DHT22;5055;52.054;8.524;2024-03-02T02:11:02;6.40;97.00
10030;DHT22;5055;52.054;8.524;2024-03-02T02:13:30;6.40;97.00
10030;DHT22;5055;52.054;8.524;2024-03-02T02:16:04;6.30;97.00
10030;DHT22;5055;52.054;8.524;2024-03-02T02:18:34;6.40;97.00
10030;DHT22;5055;52.054;8.524;2024-03-02T02:21:03;6.40;97.00
10030;DHT22;5055;52.054;8.524;2024-03-02T02:23:32;6.40;97.00
10030;DHT22;5055;52.054;8.524;2024-03-02T02:26:00;6.40;97.00
10030;DHT22;5055;52.054;8.524;2024-03-02T02:28:29;6.40;97.00
10030;DHT22;5055;52.054;8.524;2024-03-02T02:30:57;6.40;97.00
10030;DHT22;5055;52.054;8.524;2024-03-02T02:33:27;6.40;97.00
10030;DHT22;5055;52.054;8.524;2024-03-02T02:35:55;6.40;97.00
10030;DHT22;5055;52.054;8.524;2024-03-02T02:38:24;6.40;97.00
10030;DHT22;5055;52.054;8.524;2024-03-02T02:40:53;6.40;97.00
10030;DHT22;5055;52.054;8.524;2024-03-02T02:43:21;6.40;97.00
10030;DHT22;5055;52.054;8.524;2024-03-02T02:45:49;6.40;97.00
10030;DHT22;5055;52.054;8.524;2024-03-02T02:48:17;6.40;97.00
10030;DHT22;5055;52.054;8.524;2024-03-02T02:50:46;6.40;97.00
10030;DHT22;5055;52.054;8.524;2024-03-02T02:53:14;6.40;97.00
10030;DHT22;5055;52.054;8.524;2024-03-02T02:55:42;6.30;97.00
10030;DHT22;5055;52.054;8.524;2024-03-02T02:58:11;6.20;97.00
10030;DHT22;5055;52.054;8.524;2024-03-02T03:00:40;6.10;97.00
10030;DHT22;5055;52.054;8.524;2024-03-02T03:03:08;6.10;97.00
10030;DHT22;5055;52.054;8.524;2024-03-02T03:05:36;6.10;97.00
10030;DHT22;5055;52.054;8.524;2024-03-02T03:08:04;6.10;97.00
10030;DHT22;5055;52.054;8.524;2024-03-02T03:10:32;6.10;97.00
10030;DHT22;5055;52.054;8.524;2024-03-02T03:13:00;6.10;97.00
10030;DHT22;5055;52.054;8.524;2024-03-02T03:15:30;6.10;97.00
10030;DHT22;5055;52.054;8.524;2024-03-02T03:17:58;6.10;97.00
10030;DHT22;5055;52.054;8.524;2024-03-02T03:20:27;6.10;97.00
10030;DHT22;5055;52.054;8.524;2024-03-02T03:22:55;6.10;97.00
10030;DHT22;5055;52.054;8.524;2024-03-02T03:25:23;6.10;97.00
10030;DHT22;5055;52.054;8.524;2024-03-02T03:27:51;6.10;97.00
10030;DHT22;5055;52.054;8.524;2024-03-02T03:30:20;6.10;97.00
10030;DHT22;5055;52.054;8.524;2024-03-02T03:32:49;6.10;97.00
10030;DHT22;5055;52.054;8.524;2024-03-02T03:35:17;6.10;97.00
10030;DHT22;5055;52.054;8.524;2024-03-02T03:37:45;6.10;97.00
10030;DHT22;5055;52.054;8.524;2024-03-02T03:40:14;6.20;97.00
10030;DHT22;5055;52.054;8.524;2024-03-02T03:42:42;6.20;97.00
10030;DHT22;5055;52.054;8.524;2024-03-02T03:45:11;6.20;97.00
10030;DHT22;5055;52.054;8.524;2024-03-02T03:47:40;6.30;97.00
10030;DHT22;5055;52.054;8.524;2024-03-02T03:50:10;6.20;97.00
10030;DHT22;5055;52.054;8.524;2024-03-02T03:52:42;6.20;97.00
10030;DHT22;5055;52.054;8.524;2024-03-02T03:55:10;6.20;97.00
10030;DHT22;5055;52.054;8.524;2024-03-02T03:57:39;6.20;97.00
10030;DHT22;5055;52.054;8.524;2024-03-02T04:00:08;6.20;97.00
10030;DHT22;5055;52.054;8.524;2024-03-02T04:02:38;6.10;97.00
10030;DHT22;5055;52.054;8.524;2024-03-02T04:05:06;6.10;97.00
10030;DHT22;5055;52.054;8.524;2024-03-02T04:07:39;6.20;97.00
10030;DHT22;5055;52.054;8.524;2024-03-02T04:10:08;6.20;97.00
10030;DHT22;5055;52.054;8.524;2024-03-02T04:12:36;6.20;97.00
10030;DHT22;5055;52.054;8.524;2024-03-02T04:15:05;6.20;97.00
10030;DHT22;5055;52.054;8.524;2024-03-02T04:17:34;6.20;97.00
10030;DHT22;5055;52.054;8.524;2024-03-02T04:20:03;6.20;97.00
10030;DHT22;5055;52.054;8.524;2024-03-02T04:22:33;6.20;97.00
10030;DHT22;5055;52.054;8.524;2024-03-02T04:25:03;6.20;97.00
10030;DHT22;5055;52.054;8.524;2024-03-02T04:27:34;6.20;97.00
10030;DHT22;5055;52.054;8.524;2024-03-02T04:30:03;6.10;97.00
10030;DHT22;5055;52.054;8.524;2024-03-02T04:32:31;6.00;97.00
10030;DHT22;5055;52.054;8.524;2024-03-02T04:34:59;5.90;97.00
10030;DHT22;5055;52.054;8.524;2024-03-02T04:37:27;5.90;97.00
10030;DHT22;5055;52.054;8.524;2024-03-02T04:39:55;5.70;97.00
10030;DHT22;5055;52.054;8.524;2024-03-02T04:42:25;5.70;97.00
10030;DHT22;5055;52.054;8.524;2024-03-02T04:44:53;5.70;97.00
10030;DHT22;5055;52.054;8.524;2024-03-02T04:47:21;5.70;97.00
10030;DHT22;5055;52.054;8.524;2024-03-02T04:49:49;5.70;97.00
10030;DHT22;5055;52.054;8.524;2024-03-02T04:52:17;5.70;97.00
10030;DHT22;5055;52.054;8.524;2024-03-02T04:54:45;5.80;97.00
10030;DHT22;5055;52.054;8.524;2024-03-02T04:57:32;5.80;97.00
10030;DHT22;5055;52.054;8.524;2024-03-02T05:00:00;5.90;97.00
10030;DHT22;5055;52.054;8.524;2024-03-02T05:02:28;5.90;97.00
10030;DHT22;5055;52.054;8.524;2024-03-02T05:04:56;6.00;97.00
10030;DHT22;5055;52.054;8.524;2024-03-02T05:07:24;5.90;97.00
10030;DHT22;5055;52.054;8.524;2024-03-02T05:09:52;5.90;97.00
10030;DHT22;5055;52.054;8.524;2024-03-02T05:12:20;5.90;97.00
10030;DHT22;5055;52.054;8.524;2024-03-02T05:15:15;5.90;97.00
10030;DHT22;5055;52.054;8.524;2024-03-02T05:17:43;5.90;97.00
10030;DHT22;5055;52.054;8.524;2024-03-02T05:20:11;5.80;97.00
10030;DHT22;5055;52.054;8.524;2024-03-02T05:22:40;5.90;97.00
10030;DHT22;5055;52.054;8.524;2024-03-02T05:25:09;5.80;97.00
10030;DHT22;5055;52.054;8.524;2024-03-02T05:27:37;5.90;97.00
10030;DHT22;5055;52.054;8.524;2024-03-02T05:30:07;6.00;97.00
10030;DHT22;5055;52.054;8.524;2024-03-02T05:32:36;5.90;97.00
10030;DHT22;5055;52.054;8.524;2024-03-02T05:35:05;5.90;97.00
10030;DHT22;5055;52.054;8.524;2024-03-02T05:37:34;6.00;97.00
10030;DHT22;5055;52.054;8.524;2024-03-02T05:40:03;6.00;97.00
10030;DHT22;5055;52.054;8.524;2024-03-02T05:42:32;6.00;97.00
10030;DHT22;5055;52.054;8.524;2024-03-02T05:45:00;6.10;97.00
10030;DHT22;5055;52.054;8.524;2024-03-02T05:47:28;6.10;97.00
10030;DHT22;5055;52.054;8.524;2024-03-02T05:49:58;6.10;97.00
10030;DHT22;5055;52.054;8.524;2024-03-02T05:52:26;6.10;97.00
10030;DHT22;5055;52.054;8.524;2024-03-02T05:54:54;6.20;97.00
10030;DHT22;5055;52.054;8.524;2024-03-02T05:57:22;6.20;97.00
10030;DHT22;5055;52.054;8.524;2024-03-02T06:00:07;6.20;97.00
10030;DHT22;5055;52.054;8.524;2024-03-02T06:02:35;6.10;97.00
10030;DHT22;5055;52.054;8.524;2024-03-02T06:05:07;6.10;97.00
10030;DHT22;5055;52.054;8.524;2024-03-02T06:07:35;6.10;97.00
10030;DHT22;5055;52.054;8.524;2024-03-02T06:10:04;6.10;97.00
10030;DHT22;5055;52.054;8.524;2024-03-02T06:12:38;6.10;97.00
10030;DHT22;5055;52.054;8.524;2024-03-02T06:15:06;6.00;97.00
10030;DHT22;5055;52.054;8.524;2024-03-02T06:17:35;6.00;97.00
10030;DHT22;5055;52.054;8.524;2024-03-02T06:20:04;6.00;97.00
10030;DHT22;5055;52.054;8.524;2024-03-02T06:22:36;6.00;97.00
10030;DHT22;5055;52.054;8.524;2024-03-02T06:25:04;6.00;97.00
10030;DHT22;5055;52.054;8.524;2024-03-02T06:27:33;6.00;97.00
10030;DHT22;5055;52.054;8.524;2024-03-02T06:30:01;6.00;97.00
10030;DHT22;5055;52.054;8.524;2024-03-02T06:32:30;6.00;97.00
10030;DHT22;5055;52.054;8.524;2024-03-02T06:34:58;6.00;97.00
10030;DHT22;5055;52.054;8.524;2024-03-02T06:37:27;6.10;97.00
10030;DHT22;5055;52.054;8.524;2024-03-02T06:39:56;6.10;97.00
10030;DHT22;5055;52.054;8.524;2024-03-02T06:42:24;6.20;97.00
10030;DHT22;5055;52.054;8.524;2024-03-02T06:44:52;6.20;97.00
10030;DHT22;5055;52.054;8.524;2024-03-02T06:47:21;6.20;97.00
10030;DHT22;5055;52.054;8.524;2024-03-02T06:49:49;6.20;97.00
10030;DHT22;5055;52.054;8.524;2024-03-02T06:52:17;6.10;97.00
10030;DHT22;5055;52.054;8.524;2024-03-02T06:54:50;6.10;97.00
10030;DHT22;5055;52.054;8.524;2024-03-02T06:57:20;6.20;97.00
10030;DHT22;5055;52.054;8.524;2024-03-02T06:59:48;6.20;97.00
10030;DHT22;5055;52.054;8.524;2024-03-02T07:02:17;6.20;97.00
10030;DHT22;5055;52.054;8.524;2024-03-02T07:04:45;6.20;97.00
10030;DHT22;5055;52.054;8.524;2024-03-02T07:07:13;6.30;97.00
10030;DHT22;5055;52.054;8.524;2024-03-02T07:09:41;6.30;97.00
10030;DHT22;5055;52.054;8.524;2024-03-02T07:12:10;6.30;97.00
10030;DHT22;5055;52.054;8.524;2024-03-02T07:14:39;6.50;97.00
10030;DHT22;5055;52.054;8.524;2024-03-02T07:17:24;6.50;97.00
10030;DHT22;5055;52.054;8.524;2024-03-02T07:19:52;6.50;97.00
10030;DHT22;5055;52.054;8.524;2024-03-02T07:22:21;6.60;97.00
10030;DHT22;5055;52.054;8.524;2024-03-02T07:24:49;6.60;97.00
10030;DHT22;5055;52.054;8.524;2024-03-02T07:27:17;6.60;97.00
10030;DHT22;5055;52.054;8.524;2024-03-02T07:29:47;6.70;97.00
10030;DHT22;5055;52.054;8.524;2024-03-02T07:32:15;6.70;97.00
10030;DHT22;5055;52.054;8.524;2024-03-02T07:34:43;6.70;97.00
10030;DHT22;5055;52.054;8.524;2024-03-02T07:37:11;6.80;97.00
10030;DHT22;5055;52.054;8.524;2024-03-02T07:39:39;6.90;97.00
10030;DHT22;5055;52.054;8.524;2024-03-02T07:42:07;6.90;97.00
10030;DHT22;5055;52.054;8.524;2024-03-02T07:44:35;6.90;97.00
10030;DHT22;5055;52.054;8.524;2024-03-02T07:47:07;7.00;97.00
10030;DHT22;5055;52.054;8.524;2024-03-02T07:49:35;7.10;97.00
10030;DHT22;5055;52.054;8.524;2024-03-02T07:52:04;7.40;97.00
10030;DHT22;5055;52.054;8.524;2024-03-02T07:54:32;7.70;97.00
10030;DHT22;5055;52.054;8.524;2024-03-02T07:57:00;7.90;97.00
10030;DHT22;5055;52.054;8.524;2024-03-02T07:59:28;8.20;97.00
10030;DHT22;5055;52.054;8.524;2024-03-02T08:01:57;8.40;97.00
10030;DHT22;5055;52.054;8.524;2024-03-02T08:04:26;8.80;97.00
10030;DHT22;5055;52.054;8.524;2024-03-02T08:06:54;9.20;97.00
10030;DHT22;5055;52.054;8.524;2024-03-02T08:09:22;9.50;97.00
10030;DHT22;5055;52.054;8.524;2024-03-02T08:11:51;9.80;97.00
10030;DHT22;5055;52.054;8.524;2024-03-02T08:14:19;10.10;97.00
10030;DHT22;5055;52.054;8.524;2024-03-02T08:16:47;10.50;97.00
10030;DHT22;5055;52.054;8.524;2024-03-02T08:19:15;10.80;97.00
10030;DHT22;5055;52.054;8.524;2024-03-02T08:21:45;11.10;97.00
10030;DHT22;5055;52.054;8.524;2024-03-02T08:24:13;11.10;97.00
10030;DHT22;5055;52.054;8.524;2024-03-02T08:26:41;11.50;97.00
10030;DHT22;5055;52.054;8.524;2024-03-02T08:29:10;11.70;97.00
10030;DHT22;5055;52.054;8.524;2024-03-02T08:31:38;11.90;97.00
10030;DHT22;5055;52.054;8.524;2024-03-02T08:34:08;12.30;97.00
10030;DHT22;5055;52.054;8.524;2024-03-02T08:36:37;12.40;97.00
10030;DHT22;5055;52.054;8.524;2024-03-02T08:39:07;12.40;97.00
10030;DHT22;5055;52.054;8.524;2024-03-02T08:41:42;12.30;97.00
10030;DHT22;5055;52.054;8.524;2024-03-02T08:44:10;12.70;97.00
10030;DHT22;5055;52.054;8.524;2024-03-02T08:46:39;12.70;97.00
10030;DHT22;5055;52.054;8.524;2024-03-02T08:49:07;12.80;97.00
10030;DHT22;5055;52.054;8.524;2024-03-02T08:51:36;13.00;97.00
10030;DHT22;5055;52.054;8.524;2024-03-02T08:54:05;13.10;97.00
10030;DHT22;5055;52.054;8.524;2024-03-02T08:56:33;13.10;97.00
10030;DHT22;5055;52.054;8.524;2024-03-02T08:59:02;13.20;97.00
10030;DHT22;5055;52.054;8.524;2024-03-02T09:01:30;13.60;97.00
10030;DHT22;5055;52.054;8.524;2024-03-02T09:03:58;13.80;97.00
10030;DHT22;5055;52.054;8.524;2024-03-02T09:06:27;14.00;97.00
10030;DHT22;5055;52.054;8.524;2024-03-02T09:08:56;14.00;97.00
10030;DHT22;5055;52.054;8.524;2024-03-02T09:11:26;14.20;97.00
10030;DHT22;5055;52.054;8.524;2024-03-02T09:13:55;13.90;97.00
10030;DHT22;5055;52.054;8.524;2024-03-02T09:16:24;13.80;97.00
10030;DHT22;5055;52.054;8.524;2024-03-02T09:18:58;13.70;97.00
10030;DHT22;5055;52.054;8.524;2024-03-02T09:21:27;13.80;97.00
10030;DHT22;5055;52.054;8.524;2024-03-02T09:23:56;14.10;97.00
10030;DHT22;5055;52.054;8.524;2024-03-02T09:26:26;14.20;97.00
10030;DHT22;5055;52.054;8.524;2024-03-02T09:28:54;14.20;97.00
10030;DHT22;5055;52.054;8.524;2024-03-02T09:31:23;14.20;97.00
10030;DHT22;5055;52.054;8.524;2024-03-02T09:33:51;14.10;97.00
10030;DHT22;5055;52.054;8.524;2024-03-02T09:36:19;14.50;97.00
10030;DHT22;5055;52.054;8.524;2024-03-02T09:38:48;14.60;97.00
10030;DHT22;5055;52.054;8.524;2024-03-02T09:41:16;15.00;97.00
10030;DHT22;5055;52.054;8.524;2024-03-02T09:43:49;14.90;97.00
10030;DHT22;5055;52.054;8.524;2024-03-02T09:46:17;14.90;97.00
10030;DHT22;5055;52.054;8.524;2024-03-02T09:48:45;15.30;97.00
10030;DHT22;5055;52.054;8.524;2024-03-02T09:51:13;15.30;97.00
10030;DHT22;5055;52.054;8.524;2024-03-02T09:53:42;15.30;97.00
10030;DHT22;5055;52.054;8.524;2024-03-02T09:56:10;15.50;97.00
10030;DHT22;5055;52.054;8.524;2024-03-02T09:58:38;15.30;97.00
10030;DHT22;5055;52.054;8.524;2024-03-02T10:01:08;15.50;97.00
10030;DHT22;5055;52.054;8.524;2024-03-02T10:03:37;15.80;97.00
10030;DHT22;5055;52.054;8.524;2024-03-02T10:06:22;16.10;97.00
10030;DHT22;5055;52.054;8.524;2024-03-02T10:08:51;15.80;97.00
10030;DHT22;5055;52.054;8.524;2024-03-02T10:11:29;15.80;97.00
10030;DHT22;5055;52.054;8.524;2024-03-02T10:14:08;16.10;97.00
10030;DHT22;5055;52.054;8.524;2024-03-02T10:16:39;16.00;97.00
10030;DHT22;5055;52.054;8.524;2024-03-02T10:19:16;15.40;97.00
10030;DHT22;5055;52.054;8.524;2024-03-02T10:21:45;14.70;97.00
10030;DHT22;5055;52.054;8.524;2024-03-02T10:24:13;15.10;97.00
10030;DHT22;5055;52.054;8.524;2024-03-02T10:26:41;15.20;97.00
10030;DHT22;5055;52.054;8.524;2024-03-02T10:29:10;15.70;97.00
10030;DHT22;5055;52.054;8.524;2024-03-02T10:31:40;16.10;97.00
10030;DHT22;5055;52.054;8.524;2024-03-02T10:34:09;16.00;97.00
10030;DHT22;5055;52.054;8.524;2024-03-02T10:36:40;16.00;97.00
10030;DHT22;5055;52.054;8.524;2024-03-02T10:39:10;16.40;97.00
10030;DHT22;5055;52.054;8.524;2024-03-02T10:41:38;16.80;97.00
10030;DHT22;5055;52.054;8.524;2024-03-02T10:44:07;16.90;97.00
10030;DHT22;5055;52.054;8.524;2024-03-02T10:46:37;16.90;97.00
10030;DHT22;5055;52.054;8.524;2024-03-02T10:49:06;17.00;97.00
10030;DHT22;5055;52.054;8.524;2024-03-02T10:51:35;16.80;97.00
10030;DHT22;5055;52.054;8.524;2024-03-02T10:54:04;16.90;97.00
10030;DHT22;5055;52.054;8.524;2024-03-02T10:56:46;16.40;97.00
10030;DHT22;5055;52.054;8.524;2024-03-02T10:59:24;16.30;97.00
10030;DHT22;5055;52.054;8.524;2024-03-02T11:01:57;16.60;97.00
10030;DHT22;5055;52.054;8.524;2024-03-02T11:04:31;16.80;97.00
10030;DHT22;5055;52.054;8.524;2024-03-02T11:07:03;17.10;97.00
10030;DHT22;5055;52.054;8.524;2024-03-02T11:09:34;16.70;97.00
10030;DHT22;5055;52.054;8.524;2024-03-02T11:12:09;16.50;97.00
10030;DHT22;5055;52.054;8.524;2024-03-02T11:14:41;16.60;97.00
10030;DHT22;5055;52.054;8.524;2024-03-02T11:17:13;16.80;97.00
10030;DHT22;5055;52.054;8.524;2024-03-02T11:19:43;16.80;97.00
10030;DHT22;5055;52.054;8.524;2024-03-02T11:22:12;16.90;97.00
10030;DHT22;5055;52.054;8.524;2024-03-02T11:24:47;17.10;97.00
10030;DHT22;5055;52.054;8.524;2024-03-02T11:30:48;16.80;97.00
10030;DHT22;5055;52.054;8.524;2024-03-02T11:33:23;16.40;97.00
10030;DHT22;5055;52.054;8.524;2024-03-02T11:35:56;16.30;97.00
10030;DHT22;5055;52.054;8.524;2024-03-02T11:38:28;16.20;97.00
10030;DHT22;5055;52.054;8.524;2024-03-02T11:40:58;16.00;97.00
10030;DHT22;5055;52.054;8.524;2024-03-02T11:43:29;15.80;97.00
10030;DHT22;5055;52.054;8.524;2024-03-02T11:45:58;15.80;97.00
10030;DHT22;5055;52.054;8.524;2024-03-02T11:48:26;15.90;97.00
10030;DHT22;5055;52.054;8.524;2024-03-02T11:50:58;15.40;97.00
10030;DHT22;5055;52.054;8.524;2024-03-02T11:53:27;15.50;97.00
10030;DHT22;5055;52.054;8.524;2024-03-02T11:55:59;15.20;97.00
10030;DHT22;5055;52.054;8.524;2024-03-02T11:58:30;14.80;97.00
10030;DHT22;5055;52.054;8.524;2024-03-02T12:00:59;14.90;97.00
10030;DHT22;5055;52.054;8.524;2024-03-02T12:03:29;15.00;97.00
10030;DHT22;5055;52.054;8.524;2024-03-02T12:05:57;14.90;97.00
10030;DHT22;5055;52.054;8.524;2024-03-02T12:08:27;14.90;97.00
10030;DHT22;5055;52.054;8.524;2024-03-02T12:10:57;14.90;97.00
10030;DHT22;5055;52.054;8.524;2024-03-02T12:13:25;15.00;97.00
10030;DHT22;5055;52.054;8.524;2024-03-02T12:15:56;15.10;97.00
10030;DHT22;5055;52.054;8.524;2024-03-02T12:18:24;15.10;97.00
10030;DHT22;5055;52.054;8.524;2024-03-02T12:20:53;15.40;97.00
10030;DHT22;5055;52.054;8.524;2024-03-02T12:23:24;15.30;97.00
10030;DHT22;5055;52.054;8.524;2024-03-02T12:25:53;15.30;97.00
10030;DHT22;5055;52.054;8.524;2024-03-02T12:28:21;15.50;97.00
10030;DHT22;5055;52.054;8.524;2024-03-02T12:30:50;15.50;97.00
10030;DHT22;5055;52.054;8.524;2024-03-02T12:33:20;15.30;97.00
10030;DHT22;5055;52.054;8.524;2024-03-02T12:35:49;15.40;97.00
10030;DHT22;5055;52.054;8.524;2024-03-02T12:38:17;15.40;97.00
10030;DHT22;5055;52.054;8.524;2024-03-02T12:40:48;15.30;97.00
10030;DHT22;5055;52.054;8.524;2024-03-02T12:43:16;15.00;97.00
10030;DHT22;5055;52.054;8.524;2024-03-02T12:45:45;14.80;97.00
10030;DHT22;5055;52.054;8.524;2024-03-02T12:48:16;14.80;97.00
10030;DHT22;5055;52.054;8.524;2024-03-02T12:50:47;15.10;97.00
10030;DHT22;5055;52.054;8.524;2024-03-02T12:53:16;15.50;97.00
10030;DHT22;5055;52.054;8.524;2024-03-02T12:55:44;15.70;97.00
10030;DHT22;5055;52.054;8.524;2024-03-02T12:58:20;16.00;97.00
10030;DHT22;5055;52.054;8.524;2024-03-02T13:00:49;16.60;97.00
10030;DHT22;5055;52.054;8.524;2024-03-02T13:03:18;16.90;97.00
10030;DHT22;5055;52.054;8.524;2024-03-02T13:05:52;17.00;97.00
10030;DHT22;5055;52.054;8.524;2024-03-02T13:08:21;16.90;97.00
10030;DHT22;5055;52.054;8.524;2024-03-02T13:10:49;16.90;97.00
10030;DHT22;5055;52.054;8.524;2024-03-02T13:13:17;16.70;97.00
10030;DHT22;5055;52.054;8.524;2024-03-02T13:15:45;17.00;97.00
10030;DHT22;5055;52.054;8.524;2024-03-02T13:18:14;17.30;97.00
10030;DHT22;5055;52.054;8.524;2024-03-02T13:20:42;17.10;97.00
10030;DHT22;5055;52.054;8.524;2024-03-02T13:23:11;17.70;97.00
10030;DHT22;5055;52.054;8.524;2024-03-02T13:25:40;17.90;97.00
10030;DHT22;5055;52.054;8.524;2024-03-02T13:28:08;17.70;97.00
10030;DHT22;5055;52.054;8.524;2024-03-02T13:30:37;17.70;97.00
10030;DHT22;5055;52.054;8.524;2024-03-02T13:33:06;17.70;97.00
10030;DHT22;5055;52.054;8.524;2024-03-02T13:35:34;18.10;97.00
10030;DHT22;5055;52.054;8.524;2024-03-02T13:38:02;18.60;97.00
10030;DHT22;5055;52.054;8.524;2024-03-02T13:40:32;18.80;97.00
10030;DHT22;5055;52.054;8.524;2024-03-02T13:43:03;19.10;97.00
10030;DHT22;5055;52.054;8.524;2024-03-02T13:45:32;19.00;97.00
10030;DHT22;5055;52.054;8.524;2024-03-02T13:48:00;18.90;97.00
10030;DHT22;5055;52.054;8.524;2024-03-02T13:50:30;19.20;97.00
10030;DHT22;5055;52.054;8.524;2024-03-02T13:52:58;19.50;97.00
10030;DHT22;5055;52.054;8.524;2024-03-02T13:55:26;19.10;97.00
10030;DHT22;5055;52.054;8.524;2024-03-02T13:57:56;19.20;97.00
10030;DHT22;5055;52.054;8.524;2024-03-02T14:00:24;19.30;97.00
10030;DHT22;5055;52.054;8.524;2024-03-02T14:02:53;18.70;97.00
10030;DHT22;5055;52.054;8.524;2024-03-02T14:05:21;18.80;97.00
10030;DHT22;5055;52.054;8.524;2024-03-02T14:07:50;18.70;97.00
10030;DHT22;5055;52.054;8.524;2024-03-02T14:10:19;19.20;97.00
10030;DHT22;5055;52.054;8.524;2024-03-02T14:12:49;18.80;97.00
10030;DHT22;5055;52.054;8.524;2024-03-02T14:15:19;18.80;97.00
10030;DHT22;5055;52.054;8.524;2024-03-02T14:17:47;19.30;97.00
10030;DHT22;5055;52.054;8.524;2024-03-02T14:20:16;19.80;97.00
10030;DHT22;5055;52.054;8.524;2024-03-02T14:22:49;20.20;97.00
10030;DHT22;5055;52.054;8.524;2024-03-02T14:25:18;19.70;97.00
10030;DHT22;5055;52.054;8.524;2024-03-02T14:27:46;19.70;97.00
10030;DHT22;5055;52.054;8.524;2024-03-02T14:30:36;19.50;97.00
10030;DHT22;5055;52.054;8.524;2024-03-02T14:33:04;19.20;97.00
10030;DHT22;5055;52.054;8.524;2024-03-02T14:35:33;18.50;97.00
10030;DHT22;5055;52.054;8.524;2024-03-02T14:38:01;17.90;97.00
10030;DHT22;5055;52.054;8.524;2024-03-02T14:40:30;17.50;97.00
10030;DHT22;5055;52.054;8.524;2024-03-02T14:42:58;17.20;97.00
10030;DHT22;5055;52.054;8.524;2024-03-02T14:45:26;17.30;97.00
10030;DHT22;5055;52.054;8.524;2024-03-02T14:47:57;17.30;97.00
10030;DHT22;5055;52.054;8.524;2024-03-02T14:50:26;17.60;97.00
10030;DHT22;5055;52.054;8.524;2024-03-02T14:52:55;17.90;97.00
10030;DHT22;5055;52.054;8.524;2024-03-02T14:55:24;18.10;97.00
10030;DHT22;5055;52.054;8.524;2024-03-02T14:57:53;18.10;97.00
10030;DHT22;5055;52.054;8.524;2024-03-02T15:00:21;18.20;97.00
10030;DHT22;5055;52.054;8.524;2024-03-02T15:02:50;18.60;97.00
10030;DHT22;5055;52.054;8.524;2024-03-02T15:05:20;19.00;97.00
10030;DHT22;5055;52.054;8.524;2024-03-02T15:07:48;18.80;97.00
10030;DHT22;5055;52.054;8.524;2024-03-02T15:10:16;18.30;97.00
10030;DHT22;5055;52.054;8.524;2024-03-02T15:12:45;18.40;97.00
10030;DHT22;5055;52.054;8.524;2024-03-02T15:15:14;17.80;97.00
10030;DHT22;5055;52.054;8.524;2024-03-02T15:17:42;17.70;97.00
10030;DHT22;5055;52.054;8.524;2024-03-02T15:20:11;17.30;97.00
10030;DHT22;5055;52.054;8.524;2024-03-02T15:22:40;17.20;97.00
10030;DHT22;5055;52.054;8.524;2024-03-02T15:25:08;17.00;97.00
10030;DHT22;5055;52.054;8.524;2024-03-02T15:27:37;17.10;97.00
10030;DHT22;5055;52.054;8.524;2024-03-02T15:30:07;17.40;97.00
10030;DHT22;5055;52.054;8.524;2024-03-02T15:32:35;17.50;97.00
10030;DHT22;5055;52.054;8.524;2024-03-02T15:35:06;17.60;97.00
10030;DHT22;5055;52.054;8.524;2024-03-02T15:37:34;17.40;97.00
10030;DHT22;5055;52.054;8.524;2024-03-02T15:40:05;17.20;97.00
10030;DHT22;5055;52.054;8.524;2024-03-02T15:42:35;16.90;97.00
10030;DHT22;5055;52.054;8.524;2024-03-02T15:45:05;16.40;97.00
10030;DHT22;5055;52.054;8.524;2024-03-02T15:47:34;15.90;97.00
10030;DHT22;5055;52.054;8.524;2024-03-02T15:50:03;15.40;97.00
10030;DHT22;5055;52.054;8.524;2024-03-02T15:52:31;15.10;97.00
10030;DHT22;5055;52.054;8.524;2024-03-02T15:55:00;14.90;97.00
10030;DHT22;5055;52.054;8.524;2024-03-02T15:57:30;14.70;97.00
10030;DHT22;5055;52.054;8.524;2024-03-02T15:59:58;14.50;97.00
10030;DHT22;5055;52.054;8.524;2024-03-02T16:02:27;14.40;97.00
10030;DHT22;5055;52.054;8.524;2024-03-02T16:04:56;14.30;97.00
10030;DHT22;5055;52.054;8.524;2024-03-02T16:07:24;14.20;97.00
10030;DHT22;5055;52.054;8.524;2024-03-02T16:09:52;14.10;97.00
10030;DHT22;5055;52.054;8.524;2024-03-02T16:12:21;14.00;97.00